sensor_id;sensor_type;location;lat;lon;timestamp;P1;durP1;ratioP1;P2;durP2;ratioP2
42194;SDS011;27863;49.440;11.102;2023-01-08T00:02:53;7.87;;;7.27;;
42194;SDS011;27863;49.440;11.102;2023-01-08T00:05:54;8.20;;;7.40;;
42194;SDS011;27863;49.440;11.102;2023-01-08T00:08:54;8.57;;;7.87;;
42194;SDS011;27863;49.440;11.102;2023-01-08T00:11:55;8.73;;;7.97;;
42194;SDS011;27863;49.440;11.102;2023-01-08T00:14:55;7.87;;;7.17;;
42194;SDS011;27863;49.440;11.102;2023-01-08T00:17:56;9.87;;;8.87;;
42194;SDS011;27863;49.440;11.102;2023-01-08T00:20:58;8.83;;;8.03;;
42194;SDS011;27863;49.440;11.102;2023-01-08T00:23:58;7.93;;;7.23;;
42194;SDS011;27863;49.440;11.102;2023-01-08T00:26:59;7.67;;;7.07;;
42194;SDS011;27863;49.440;11.102;2023-01-08T00:30:00;8.60;;;7.70;;
42194;SDS011;27863;49.440;11.102;2023-01-08T00:33:00;8.50;;;7.70;;
42194;SDS011;27863;49.440;11.102;2023-01-08T00:36:08;7.87;;;7.17;;
42194;SDS011;27863;49.440;11.102;2023-01-08T00:39:09;8.70;;;7.90;;
42194;SDS011;27863;49.440;11.102;2023-01-08T00:42:10;8.93;;;8.13;;
42194;SDS011;27863;49.440;11.102;2023-01-08T00:45:13;8.47;;;7.67;;
42194;SDS011;27863;49.440;11.102;2023-01-08T00:48:13;8.40;;;7.70;;
42194;SDS011;27863;49.440;11.102;2023-01-08T00:51:14;8.13;;;7.43;;
42194;SDS011;27863;49.440;11.102;2023-01-08T00:54:15;8.77;;;7.70;;
42194;SDS011;27863;49.440;11.102;2023-01-08T00:57:16;9.53;;;8.63;;
42194;SDS011;27863;49.440;11.102;2023-01-08T01:00:16;7.23;;;6.63;;
42194;SDS011;27863;49.440;11.102;2023-01-08T01:03:18;8.37;;;7.63;;
42194;SDS011;27863;49.440;11.102;2023-01-08T01:06:19;8.27;;;7.57;;
42194;SDS011;27863;49.440;11.102;2023-01-08T01:09:19;8.70;;;7.50;;
42194;SDS011;27863;49.440;11.102;2023-01-08T01:12:23;8.57;;;7.73;;
42194;SDS011;27863;49.440;11.102;2023-01-08T01:15:23;8.97;;;8.07;;
42194;SDS011;27863;49.440;11.102;2023-01-08T01:18:24;9.37;;;8.47;;
42194;SDS011;27863;49.440;11.102;2023-01-08T01:21:28;9.70;;;8.77;;
42194;SDS011;27863;49.440;11.102;2023-01-08T01:24:30;8.23;;;7.53;;
42194;SDS011;27863;49.440;11.102;2023-01-08T01:27:30;8.97;;;8.17;;
42194;SDS011;27863;49.440;11.102;2023-01-08T01:30:31;8.43;;;7.67;;
42194;SDS011;27863;49.440;11.102;2023-01-08T01:33:31;9.07;;;8.00;;
42194;SDS011;27863;49.440;11.102;2023-01-08T01:36:32;10.10;;;9.20;;
42194;SDS011;27863;49.440;11.102;2023-01-08T01:39:32;9.20;;;8.30;;
42194;SDS011;27863;49.440;11.102;2023-01-08T01:42:33;9.17;;;8.37;;
42194;SDS011;27863;49.440;11.102;2023-01-08T01:45:39;8.83;;;8.03;;
42194;SDS011;27863;49.440;11.102;2023-01-08T01:48:40;8.60;;;7.80;;
42194;SDS011;27863;49.440;11.102;2023-01-08T01:51:43;9.00;;;8.20;;
42194;SDS011;27863;49.440;11.102;2023-01-08T01:54:46;8.50;;;7.80;;
42194;SDS011;27863;49.440;11.102;2023-01-08T01:57:52;9.03;;;8.23;;
42194;SDS011;27863;49.440;11.102;2023-01-08T02:01:00;9.97;;;8.97;;
42194;SDS011;27863;49.440;11.102;2023-01-08T02:04:04;10.03;;;9.03;;
42194;SDS011;27863;49.440;11.102;2023-01-08T02:14:06;9.47;;;8.53;;
42194;SDS011;27863;49.440;11.102;2023-01-08T02:17:14;9.20;;;8.27;;
42194;SDS011;27863;49.440;11.102;2023-01-08T02:26:34;9.57;;;8.67;;
42194;SDS011;27863;49.440;11.102;2023-01-08T02:29:35;8.77;;;7.87;;
42194;SDS011;27863;49.440;11.102;2023-01-08T02:32:37;9.27;;;8.47;;
42194;SDS011;27863;49.440;11.102;2023-01-08T02:35:39;8.73;;;7.53;;
42194;SDS011;27863;49.440;11.102;2023-01-08T02:38:53;9.13;;;8.27;;
42194;SDS011;27863;49.440;11.102;2023-01-08T02:42:03;8.10;;;7.37;;
42194;SDS011;27863;49.440;11.102;2023-01-08T02:45:25;8.87;;;8.07;;
42194;SDS011;27863;49.440;11.102;2023-01-08T02:48:37;9.27;;;8.47;;
42194;SDS011;27863;49.440;11.102;2023-01-08T02:51:43;8.97;;;8.17;;
42194;SDS011;27863;49.440;11.102;2023-01-08T02:54:48;9.53;;;8.63;;
42194;SDS011;27863;49.440;11.102;2023-01-08T02:57:49;8.60;;;7.80;;
42194;SDS011;27863;49.440;11.102;2023-01-08T03:00:50;8.87;;;8.07;;
42194;SDS011;27863;49.440;11.102;2023-01-08T03:03:52;10.73;;;9.67;;
42194;SDS011;27863;49.440;11.102;2023-01-08T03:06:58;8.70;;;8.00;;
42194;SDS011;27863;49.440;11.102;2023-01-08T03:09:59;9.10;;;8.30;;
42194;SDS011;27863;49.440;11.102;2023-01-08T03:16:46;10.07;;;9.10;;
42194;SDS011;27863;49.440;11.102;2023-01-08T03:19:53;10.80;;;9.70;;
42194;SDS011;27863;49.440;11.102;2023-01-08T03:22:56;9.70;;;8.77;;
42194;SDS011;27863;49.440;11.102;2023-01-08T03:25:59;10.10;;;9.03;;
42194;SDS011;27863;49.440;11.102;2023-01-08T03:29:01;10.03;;;9.03;;
42194;SDS011;27863;49.440;11.102;2023-01-08T03:32:03;9.03;;;8.07;;
42194;SDS011;27863;49.440;11.102;2023-01-08T03:35:08;10.03;;;9.13;;
42194;SDS011;27863;49.440;11.102;2023-01-08T03:38:18;8.87;;;8.07;;
42194;SDS011;27863;49.440;11.102;2023-01-08T03:41:22;8.37;;;7.53;;
42194;SDS011;27863;49.440;11.102;2023-01-08T03:44:23;8.47;;;7.67;;
42194;SDS011;27863;49.440;11.102;2023-01-08T03:47:24;9.30;;;8.50;;
42194;SDS011;27863;49.440;11.102;2023-01-08T03:50:27;8.80;;;8.00;;
42194;SDS011;27863;49.440;11.102;2023-01-08T03:53:28;9.90;;;9.03;;
42194;SDS011;27863;49.440;11.102;2023-01-08T03:56:29;8.40;;;7.60;;
42194;SDS011;27863;49.440;11.102;2023-01-08T03:59:30;8.23;;;7.53;;
42194;SDS011;27863;49.440;11.102;2023-01-08T04:02:30;8.70;;;8.00;;
42194;SDS011;27863;49.440;11.102;2023-01-08T04:05:31;9.13;;;7.83;;
42194;SDS011;27863;49.440;11.102;2023-01-08T04:08:32;8.57;;;7.83;;
42194;SDS011;27863;49.440;11.102;2023-01-08T04:11:33;8.63;;;7.93;;
42194;SDS011;27863;49.440;11.102;2023-01-08T04:14:34;8.73;;;7.80;;
42194;SDS011;27863;49.440;11.102;2023-01-08T04:17:35;8.20;;;7.50;;
42194;SDS011;27863;49.440;11.102;2023-01-08T04:20:36;8.37;;;7.57;;
42194;SDS011;27863;49.440;11.102;2023-01-08T04:23:36;9.07;;;8.27;;
42194;SDS011;27863;49.440;11.102;2023-01-08T04:26:37;8.77;;;8.00;;
42194;SDS011;27863;49.440;11.102;2023-01-08T04:29:37;8.43;;;7.63;;
42194;SDS011;27863;49.440;11.102;2023-01-08T04:32:38;8.53;;;7.73;;
42194;SDS011;27863;49.440;11.102;2023-01-08T04:35:40;8.33;;;7.60;;
42194;SDS011;27863;49.440;11.102;2023-01-08T04:38:40;8.77;;;7.93;;
42194;SDS011;27863;49.440;11.102;2023-01-08T04:41:41;7.37;;;6.77;;
42194;SDS011;27863;49.440;11.102;2023-01-08T04:44:41;7.90;;;7.10;;
42194;SDS011;27863;49.440;11.102;2023-01-08T04:47:42;8.03;;;7.33;;
42194;SDS011;27863;49.440;11.102;2023-01-08T04:50:42;8.47;;;7.67;;
42194;SDS011;27863;49.440;11.102;2023-01-08T04:53:43;8.33;;;7.63;;
42194;SDS011;27863;49.440;11.102;2023-01-08T04:56:44;7.37;;;6.77;;
42194;SDS011;27863;49.440;11.102;2023-01-08T04:59:45;9.13;;;8.23;;
42194;SDS011;27863;49.440;11.102;2023-01-08T05:02:45;7.53;;;6.83;;
42194;SDS011;27863;49.440;11.102;2023-01-08T05:05:46;7.73;;;7.03;;
42194;SDS011;27863;49.440;11.102;2023-01-08T05:08:46;8.87;;;8.17;;
42194;SDS011;27863;49.440;11.102;2023-01-08T05:11:47;9.03;;;8.33;;
42194;SDS011;27863;49.440;11.102;2023-01-08T05:14:47;9.27;;;8.37;;
42194;SDS011;27863;49.440;11.102;2023-01-08T05:17:48;9.27;;;8.47;;
42194;SDS011;27863;49.440;11.102;2023-01-08T05:20:48;9.17;;;8.37;;
42194;SDS011;27863;49.440;11.102;2023-01-08T05:23:49;8.73;;;7.93;;
42194;SDS011;27863;49.440;11.102;2023-01-08T05:26:49;10.33;;;9.43;;
42194;SDS011;27863;49.440;11.102;2023-01-08T05:29:50;9.37;;;8.57;;
42194;SDS011;27863;49.440;11.102;2023-01-08T05:32:50;7.67;;;6.97;;
42194;SDS011;27863;49.440;11.102;2023-01-08T05:35:51;9.93;;;9.13;;
42194;SDS011;27863;49.440;11.102;2023-01-08T05:38:52;10.00;;;9.00;;
42194;SDS011;27863;49.440;11.102;2023-01-08T05:41:52;9.33;;;8.50;;
42194;SDS011;27863;49.440;11.102;2023-01-08T05:44:53;8.90;;;8.17;;
42194;SDS011;27863;49.440;11.102;2023-01-08T05:47:53;8.87;;;7.97;;
42194;SDS011;27863;49.440;11.102;2023-01-08T05:50:54;8.70;;;7.93;;
42194;SDS011;27863;49.440;11.102;2023-01-08T05:53:54;8.90;;;8.17;;
42194;SDS011;27863;49.440;11.102;2023-01-08T05:56:55;9.20;;;8.30;;
42194;SDS011;27863;49.440;11.102;2023-01-08T05:59:56;11.67;;;9.23;;
42194;SDS011;27863;49.440;11.102;2023-01-08T06:02:58;9.17;;;8.27;;
42194;SDS011;27863;49.440;11.102;2023-01-08T06:05:59;9.63;;;8.73;;
42194;SDS011;27863;49.440;11.102;2023-01-08T06:09:01;8.87;;;8.17;;
42194;SDS011;27863;49.440;11.102;2023-01-08T06:12:01;8.60;;;7.90;;
42194;SDS011;27863;49.440;11.102;2023-01-08T06:15:02;9.00;;;8.20;;
42194;SDS011;27863;49.440;11.102;2023-01-08T06:18:03;8.77;;;8.00;;
42194;SDS011;27863;49.440;11.102;2023-01-08T06:21:04;8.37;;;7.67;;
42194;SDS011;27863;49.440;11.102;2023-01-08T06:24:05;9.03;;;8.40;;
42194;SDS011;27863;49.440;11.102;2023-01-08T06:27:05;8.53;;;7.83;;
42194;SDS011;27863;49.440;11.102;2023-01-08T06:30:06;9.13;;;8.33;;
42194;SDS011;27863;49.440;11.102;2023-01-08T06:33:07;8.93;;;8.13;;
42194;SDS011;27863;49.440;11.102;2023-01-08T06:36:08;9.63;;;8.70;;
42194;SDS011;27863;49.440;11.102;2023-01-08T06:39:08;8.70;;;7.93;;
42194;SDS011;27863;49.440;11.102;2023-01-08T06:42:09;9.20;;;8.47;;
42194;SDS011;27863;49.440;11.102;2023-01-08T06:45:10;8.13;;;7.43;;
42194;SDS011;27863;49.440;11.102;2023-01-08T06:48:10;7.87;;;7.23;;
42194;SDS011;27863;49.440;11.102;2023-01-08T06:51:11;7.93;;;7.23;;
42194;SDS011;27863;49.440;11.102;2023-01-08T06:54:11;8.77;;;8.03;;
42194;SDS011;27863;49.440;11.102;2023-01-08T06:57:12;8.97;;;8.17;;
42194;SDS011;27863;49.440;11.102;2023-01-08T07:00:12;7.93;;;7.23;;
42194;SDS011;27863;49.440;11.102;2023-01-08T07:03:14;8.57;;;7.87;;
42194;SDS011;27863;49.440;11.102;2023-01-08T07:06:16;8.43;;;7.60;;
42194;SDS011;27863;49.440;11.102;2023-01-08T07:09:18;7.70;;;7.10;;
42194;SDS011;27863;49.440;11.102;2023-01-08T07:12:18;10.70;;;7.93;;
42194;SDS011;27863;49.440;11.102;2023-01-08T07:15:19;8.43;;;7.57;;
42194;SDS011;27863;49.440;11.102;2023-01-08T07:18:19;8.80;;;8.10;;
42194;SDS011;27863;49.440;11.102;2023-01-08T07:21:20;8.03;;;7.33;;
42194;SDS011;27863;49.440;11.102;2023-01-08T07:24:21;7.80;;;7.13;;
42194;SDS011;27863;49.440;11.102;2023-01-08T07:27:23;7.27;;;6.67;;
42194;SDS011;27863;49.440;11.102;2023-01-08T07:30:24;6.97;;;6.37;;
42194;SDS011;27863;49.440;11.102;2023-01-08T07:33:24;7.43;;;6.67;;
42194;SDS011;27863;49.440;11.102;2023-01-08T07:36:24;7.30;;;6.70;;
42194;SDS011;27863;49.440;11.102;2023-01-08T07:39:25;7.37;;;6.67;;
42194;SDS011;27863;49.440;11.102;2023-01-08T07:42:25;7.57;;;6.97;;
42194;SDS011;27863;49.440;11.102;2023-01-08T07:45:26;6.30;;;5.80;;
42194;SDS011;27863;49.440;11.102;2023-01-08T07:48:27;7.47;;;6.77;;
42194;SDS011;27863;49.440;11.102;2023-01-08T07:51:28;7.97;;;7.27;;
42194;SDS011;27863;49.440;11.102;2023-01-08T07:54:29;7.30;;;6.70;;
42194;SDS011;27863;49.440;11.102;2023-01-08T07:57:29;7.73;;;7.13;;
42194;SDS011;27863;49.440;11.102;2023-01-08T08:00:29;7.03;;;6.37;;
42194;SDS011;27863;49.440;11.102;2023-01-08T08:03:31;7.70;;;7.00;;
42194;SDS011;27863;49.440;11.102;2023-01-08T08:06:31;9.70;;;7.00;;
42194;SDS011;27863;49.440;11.102;2023-01-08T08:09:32;6.90;;;6.30;;
42194;SDS011;27863;49.440;11.102;2023-01-08T08:12:34;7.50;;;6.90;;
42194;SDS011;27863;49.440;11.102;2023-01-08T08:15:35;6.97;;;6.37;;
42194;SDS011;27863;49.440;11.102;2023-01-08T08:18:36;7.17;;;6.57;;
42194;SDS011;27863;49.440;11.102;2023-01-08T08:21:37;7.37;;;6.67;;
42194;SDS011;27863;49.440;11.102;2023-01-08T08:24:37;6.60;;;6.00;;
42194;SDS011;27863;49.440;11.102;2023-01-08T08:27:38;6.63;;;6.03;;
42194;SDS011;27863;49.440;11.102;2023-01-08T08:30:39;6.87;;;6.37;;
42194;SDS011;27863;49.440;11.102;2023-01-08T08:33:39;7.67;;;7.03;;
42194;SDS011;27863;49.440;11.102;2023-01-08T08:36:41;7.17;;;6.57;;
42194;SDS011;27863;49.440;11.102;2023-01-08T08:39:41;7.03;;;6.40;;
42194;SDS011;27863;49.440;11.102;2023-01-08T08:42:44;6.87;;;6.30;;
42194;SDS011;27863;49.440;11.102;2023-01-08T08:45:45;7.63;;;6.07;;
42194;SDS011;27863;49.440;11.102;2023-01-08T08:48:46;6.87;;;6.27;;
42194;SDS011;27863;49.440;11.102;2023-01-08T08:51:46;6.10;;;5.63;;
42194;SDS011;27863;49.440;11.102;2023-01-08T08:54:47;7.13;;;6.43;;
42194;SDS011;27863;49.440;11.102;2023-01-08T08:57:48;6.47;;;5.97;;
42194;SDS011;27863;49.440;11.102;2023-01-08T09:00:48;5.97;;;5.50;;
42194;SDS011;27863;49.440;11.102;2023-01-08T09:03:49;5.57;;;5.10;;
42194;SDS011;27863;49.440;11.102;2023-01-08T09:06:49;5.60;;;5.10;;
42194;SDS011;27863;49.440;11.102;2023-01-08T09:09:50;7.20;;;5.53;;
42194;SDS011;27863;49.440;11.102;2023-01-08T09:12:52;5.83;;;5.33;;
42194;SDS011;27863;49.440;11.102;2023-01-08T09:15:52;5.47;;;5.07;;
42194;SDS011;27863;49.440;11.102;2023-01-08T09:18:54;5.73;;;5.23;;
42194;SDS011;27863;49.440;11.102;2023-01-08T09:21:55;6.30;;;5.80;;
42194;SDS011;27863;49.440;11.102;2023-01-08T09:24:56;6.07;;;5.57;;
42194;SDS011;27863;49.440;11.102;2023-01-08T09:27:57;5.90;;;5.40;;
42194;SDS011;27863;49.440;11.102;2023-01-08T09:31:01;5.60;;;5.10;;
42194;SDS011;27863;49.440;11.102;2023-01-08T09:34:02;5.10;;;4.70;;
42194;SDS011;27863;49.440;11.102;2023-01-08T09:37:03;5.23;;;4.73;;
42194;SDS011;27863;49.440;11.102;2023-01-08T09:40:04;5.40;;;4.90;;
42194;SDS011;27863;49.440;11.102;2023-01-08T09:43:05;6.27;;;5.57;;
42194;SDS011;27863;49.440;11.102;2023-01-08T09:46:07;5.20;;;4.70;;
42194;SDS011;27863;49.440;11.102;2023-01-08T09:49:09;5.30;;;4.53;;
42194;SDS011;27863;49.440;11.102;2023-01-08T09:52:13;5.07;;;4.67;;
42194;SDS011;27863;49.440;11.102;2023-01-08T09:55:14;4.23;;;3.93;;
42194;SDS011;27863;49.440;11.102;2023-01-08T09:58:58;7.13;;;4.20;;
42194;SDS011;27863;49.440;11.102;2023-01-08T10:01:43;4.00;;;3.70;;
42194;SDS011;27863;49.440;11.102;2023-01-08T10:04:45;4.20;;;3.80;;
42194;SDS011;27863;49.440;11.102;2023-01-08T10:07:47;4.80;;;4.37;;
42194;SDS011;27863;49.440;11.102;2023-01-08T10:10:47;4.53;;;4.10;;
42194;SDS011;27863;49.440;11.102;2023-01-08T10:13:51;4.00;;;3.70;;
42194;SDS011;27863;49.440;11.102;2023-01-08T10:17:01;4.67;;;4.27;;
42194;SDS011;27863;49.440;11.102;2023-01-08T10:20:23;5.60;;;5.10;;
42194;SDS011;27863;49.440;11.102;2023-01-08T10:23:24;4.73;;;4.33;;
42194;SDS011;27863;49.440;11.102;2023-01-08T10:26:31;6.03;;;5.43;;
42194;SDS011;27863;49.440;11.102;2023-01-08T10:29:36;7.77;;;6.97;;
42194;SDS011;27863;49.440;11.102;2023-01-08T10:32:44;6.17;;;5.57;;
42194;SDS011;27863;49.440;11.102;2023-01-08T10:35:53;5.50;;;5.00;;
42194;SDS011;27863;49.440;11.102;2023-01-08T10:39:01;6.07;;;5.53;;
42194;SDS011;27863;49.440;11.102;2023-01-08T10:42:04;6.87;;;4.77;;
42194;SDS011;27863;49.440;11.102;2023-01-08T10:45:08;5.67;;;5.17;;
42194;SDS011;27863;49.440;11.102;2023-01-08T10:48:16;6.13;;;5.63;;
42194;SDS011;27863;49.440;11.102;2023-01-08T10:51:18;5.23;;;4.73;;
42194;SDS011;27863;49.440;11.102;2023-01-08T10:54:42;5.80;;;5.30;;
42194;SDS011;27863;49.440;11.102;2023-01-08T10:57:43;6.57;;;5.97;;
42194;SDS011;27863;49.440;11.102;2023-01-08T11:00:53;6.00;;;5.40;;
42194;SDS011;27863;49.440;11.102;2023-01-08T11:03:57;5.43;;;5.03;;
42194;SDS011;27863;49.440;11.102;2023-01-08T11:07:18;6.30;;;5.70;;
42194;SDS011;27863;49.440;11.102;2023-01-08T11:10:20;5.33;;;4.83;;
42194;SDS011;27863;49.440;11.102;2023-01-08T11:13:23;6.60;;;6.00;;
42194;SDS011;27863;49.440;11.102;2023-01-08T11:16:37;6.30;;;5.80;;
42194;SDS011;27863;49.440;11.102;2023-01-08T11:19:39;5.27;;;4.77;;
42194;SDS011;27863;49.440;11.102;2023-01-08T11:22:39;5.37;;;4.53;;
42194;SDS011;27863;49.440;11.102;2023-01-08T11:25:41;6.60;;;6.00;;
42194;SDS011;27863;49.440;11.102;2023-01-08T11:28:57;5.47;;;4.97;;
42194;SDS011;27863;49.440;11.102;2023-01-08T11:32:08;7.17;;;5.63;;
42194;SDS011;27863;49.440;11.102;2023-01-08T11:38:25;5.73;;;5.27;;
42194;SDS011;27863;49.440;11.102;2023-01-08T11:41:39;6.20;;;5.60;;
42194;SDS011;27863;49.440;11.102;2023-01-08T11:48:32;5.33;;;4.93;;
42194;SDS011;27863;49.440;11.102;2023-01-08T12:08:28;6.57;;;6.00;;
42194;SDS011;27863;49.440;11.102;2023-01-08T12:11:40;6.20;;;5.60;;
42194;SDS011;27863;49.440;11.102;2023-01-08T12:32:00;6.00;;;5.57;;
42194;SDS011;27863;49.440;11.102;2023-01-08T12:41:30;6.67;;;5.37;;
42194;SDS011;27863;49.440;11.102;2023-01-08T12:44:33;6.53;;;5.93;;
42194;SDS011;27863;49.440;11.102;2023-01-08T12:47:35;5.97;;;5.37;;
42194;SDS011;27863;49.440;11.102;2023-01-08T12:51:11;6.17;;;5.43;;
42194;SDS011;27863;49.440;11.102;2023-01-08T12:57:30;5.33;;;4.83;;
42194;SDS011;27863;49.440;11.102;2023-01-08T13:01:00;5.83;;;5.33;;
42194;SDS011;27863;49.440;11.102;2023-01-08T13:04:20;5.67;;;5.10;;
42194;SDS011;27863;49.440;11.102;2023-01-08T13:07:29;5.30;;;4.60;;
42194;SDS011;27863;49.440;11.102;2023-01-08T13:13:48;4.80;;;4.40;;
42194;SDS011;27863;49.440;11.102;2023-01-08T13:17:04;5.53;;;4.97;;
42194;SDS011;27863;49.440;11.102;2023-01-08T13:20:06;4.60;;;4.20;;
42194;SDS011;27863;49.440;11.102;2023-01-08T13:23:17;5.97;;;4.87;;
42194;SDS011;27863;49.440;11.102;2023-01-08T13:26:26;4.97;;;4.43;;
42194;SDS011;27863;49.440;11.102;2023-01-08T13:29:37;4.80;;;4.40;;
42194;SDS011;27863;49.440;11.102;2023-01-08T13:32:43;4.50;;;4.20;;
42194;SDS011;27863;49.440;11.102;2023-01-08T13:35:45;5.43;;;4.83;;
42194;SDS011;27863;49.440;11.102;2023-01-08T13:38:58;4.23;;;3.83;;
42194;SDS011;27863;49.440;11.102;2023-01-08T13:45:24;4.97;;;4.33;;
42194;SDS011;27863;49.440;11.102;2023-01-08T13:48:33;5.17;;;4.30;;
42194;SDS011;27863;49.440;11.102;2023-01-08T13:51:40;4.57;;;4.17;;
42194;SDS011;27863;49.440;11.102;2023-01-08T13:54:41;5.30;;;4.80;;
42194;SDS011;27863;49.440;11.102;2023-01-08T13:57:44;5.90;;;4.37;;
42194;SDS011;27863;49.440;11.102;2023-01-08T14:00:48;5.07;;;4.67;;
42194;SDS011;27863;49.440;11.102;2023-01-08T14:03:50;4.20;;;3.90;;
42194;SDS011;27863;49.440;11.102;2023-01-08T14:06:52;4.23;;;3.87;;
42194;SDS011;27863;49.440;11.102;2023-01-08T14:10:06;4.57;;;4.20;;
42194;SDS011;27863;49.440;11.102;2023-01-08T14:13:08;4.50;;;4.10;;
42194;SDS011;27863;49.440;11.102;2023-01-08T14:16:10;5.07;;;4.60;;
42194;SDS011;27863;49.440;11.102;2023-01-08T14:19:14;5.10;;;4.70;;
42194;SDS011;27863;49.440;11.102;2023-01-08T14:22:18;4.33;;;4.03;;
42194;SDS011;27863;49.440;11.102;2023-01-08T14:25:19;5.10;;;4.67;;
42194;SDS011;27863;49.440;11.102;2023-01-08T14:28:21;6.60;;;5.23;;
42194;SDS011;27863;49.440;11.102;2023-01-08T14:31:23;5.37;;;4.20;;
42194;SDS011;27863;49.440;11.102;2023-01-08T14:34:30;4.53;;;4.13;;
42194;SDS011;27863;49.440;11.102;2023-01-08T14:37:31;6.80;;;4.53;;
42194;SDS011;27863;49.440;11.102;2023-01-08T14:40:36;4.17;;;3.77;;
42194;SDS011;27863;49.440;11.102;2023-01-08T14:43:42;4.70;;;4.27;;
42194;SDS011;27863;49.440;11.102;2023-01-08T14:46:44;4.77;;;4.30;;
42194;SDS011;27863;49.440;11.102;2023-01-08T14:49:48;4.73;;;4.33;;
42194;SDS011;27863;49.440;11.102;2023-01-08T14:52:51;4.20;;;3.80;;
42194;SDS011;27863;49.440;11.102;2023-01-08T14:55:55;4.53;;;4.07;;
42194;SDS011;27863;49.440;11.102;2023-01-08T14:58:56;3.93;;;3.57;;
42194;SDS011;27863;49.440;11.102;2023-01-08T15:01:58;3.90;;;3.60;;
42194;SDS011;27863;49.440;11.102;2023-01-08T15:05:01;4.43;;;3.47;;
42194;SDS011;27863;49.440;11.102;2023-01-08T15:08:22;3.70;;;3.17;;
42194;SDS011;27863;49.440;11.102;2023-01-08T15:11:31;3.53;;;3.23;;
42194;SDS011;27863;49.440;11.102;2023-01-08T15:14:48;3.33;;;2.97;;
42194;SDS011;27863;49.440;11.102;2023-01-08T15:17:48;3.93;;;3.63;;
42194;SDS011;27863;49.440;11.102;2023-01-08T15:20:49;4.63;;;3.53;;
42194;SDS011;27863;49.440;11.102;2023-01-08T15:23:51;5.63;;;3.47;;
42194;SDS011;27863;49.440;11.102;2023-01-08T15:26:55;4.80;;;4.13;;
42194;SDS011;27863;49.440;11.102;2023-01-08T15:29:56;4.00;;;3.70;;
42194;SDS011;27863;49.440;11.102;2023-01-08T15:33:33;4.17;;;3.77;;
42194;SDS011;27863;49.440;11.102;2023-01-08T15:36:28;3.80;;;3.40;;
42194;SDS011;27863;49.440;11.102;2023-01-08T15:39:28;4.07;;;3.60;;
42194;SDS011;27863;49.440;11.102;2023-01-08T15:42:30;4.10;;;3.27;;
42194;SDS011;27863;49.440;11.102;2023-01-08T15:45:50;4.20;;;3.27;;
42194;SDS011;27863;49.440;11.102;2023-01-08T15:48:51;3.53;;;3.30;;
42194;SDS011;27863;49.440;11.102;2023-01-08T15:51:51;3.30;;;3.00;;
42194;SDS011;27863;49.440;11.102;2023-01-08T15:54:52;3.33;;;3.03;;
42194;SDS011;27863;49.440;11.102;2023-01-08T15:57:54;3.93;;;3.53;;
42194;SDS011;27863;49.440;11.102;2023-01-08T16:00:55;4.20;;;3.57;;
42194;SDS011;27863;49.440;11.102;2023-01-08T16:03:57;3.40;;;3.10;;
42194;SDS011;27863;49.440;11.102;2023-01-08T16:06:57;3.70;;;3.40;;
42194;SDS011;27863;49.440;11.102;2023-01-08T16:09:58;4.07;;;3.20;;
42194;SDS011;27863;49.440;11.102;2023-01-08T16:12:59;3.80;;;3.50;;
42194;SDS011;27863;49.440;11.102;2023-01-08T16:16:05;4.00;;;3.63;;
42194;SDS011;27863;49.440;11.102;2023-01-08T16:19:08;3.30;;;3.00;;
42194;SDS011;27863;49.440;11.102;2023-01-08T16:22:10;3.93;;;3.50;;
42194;SDS011;27863;49.440;11.102;2023-01-08T16:25:12;3.83;;;3.47;;
42194;SDS011;27863;49.440;11.102;2023-01-08T16:28:13;3.90;;;3.60;;
42194;SDS011;27863;49.440;11.102;2023-01-08T16:31:13;3.80;;;3.50;;
42194;SDS011;27863;49.440;11.102;2023-01-08T16:34:14;4.77;;;3.87;;
42194;SDS011;27863;49.440;11.102;2023-01-08T16:37:15;4.20;;;3.80;;
42194;SDS011;27863;49.440;11.102;2023-01-08T16:40:17;4.43;;;4.03;;
42194;SDS011;27863;49.440;11.102;2023-01-08T16:43:19;3.93;;;3.63;;
42194;SDS011;27863;49.440;11.102;2023-01-08T16:46:21;4.00;;;3.70;;
42194;SDS011;27863;49.440;11.102;2023-01-08T16:49:22;4.80;;;4.37;;
42194;SDS011;27863;49.440;11.102;2023-01-08T16:52:22;4.73;;;4.33;;
42194;SDS011;27863;49.440;11.102;2023-01-08T16:55:23;4.37;;;3.53;;
42194;SDS011;27863;49.440;11.102;2023-01-08T16:58:23;5.27;;;4.20;;
42194;SDS011;27863;49.440;11.102;2023-01-08T17:01:24;4.43;;;4.03;;
42194;SDS011;27863;49.440;11.102;2023-01-08T17:04:27;4.27;;;3.87;;
42194;SDS011;27863;49.440;11.102;2023-01-08T17:07:29;4.70;;;4.30;;
42194;SDS011;27863;49.440;11.102;2023-01-08T17:10:29;4.27;;;3.87;;
42194;SDS011;27863;49.440;11.102;2023-01-08T17:13:30;4.97;;;4.50;;
42194;SDS011;27863;49.440;11.102;2023-01-08T17:16:30;4.03;;;3.73;;
42194;SDS011;27863;49.440;11.102;2023-01-08T17:19:31;4.10;;;3.80;;
42194;SDS011;27863;49.440;11.102;2023-01-08T17:22:33;3.77;;;3.47;;
42194;SDS011;27863;49.440;11.102;2023-01-08T17:25:33;5.00;;;4.60;;
42194;SDS011;27863;49.440;11.102;2023-01-08T17:28:39;3.80;;;3.50;;
42194;SDS011;27863;49.440;11.102;2023-01-08T17:31:39;4.77;;;4.37;;
42194;SDS011;27863;49.440;11.102;2023-01-08T17:34:40;3.93;;;3.63;;
42194;SDS011;27863;49.440;11.102;2023-01-08T17:37:40;3.90;;;3.60;;
42194;SDS011;27863;49.440;11.102;2023-01-08T17:40:41;5.10;;;4.70;;
42194;SDS011;27863;49.440;11.102;2023-01-08T17:43:41;4.40;;;4.00;;
42194;SDS011;27863;49.440;11.102;2023-01-08T17:46:42;4.17;;;3.77;;
42194;SDS011;27863;49.440;11.102;2023-01-08T17:49:47;3.67;;;3.37;;
42194;SDS011;27863;49.440;11.102;2023-01-08T17:52:48;4.77;;;4.27;;
42194;SDS011;27863;49.440;11.102;2023-01-08T17:55:50;5.10;;;3.97;;
42194;SDS011;27863;49.440;11.102;2023-01-08T17:58:52;4.60;;;4.20;;
42194;SDS011;27863;49.440;11.102;2023-01-08T18:01:53;4.80;;;3.73;;
42194;SDS011;27863;49.440;11.102;2023-01-08T18:04:53;5.07;;;4.57;;
42194;SDS011;27863;49.440;11.102;2023-01-08T18:07:54;4.17;;;3.77;;
42194;SDS011;27863;49.440;11.102;2023-01-08T18:10:58;4.13;;;3.73;;
42194;SDS011;27863;49.440;11.102;2023-01-08T18:14:01;6.67;;;4.07;;
42194;SDS011;27863;49.440;11.102;2023-01-08T18:17:01;5.73;;;4.07;;
42194;SDS011;27863;49.440;11.102;2023-01-08T18:20:02;4.00;;;3.70;;
42194;SDS011;27863;49.440;11.102;2023-01-08T18:23:03;4.60;;;4.20;;
42194;SDS011;27863;49.440;11.102;2023-01-08T18:26:04;5.60;;;4.83;;
42194;SDS011;27863;49.440;11.102;2023-01-08T18:29:06;3.90;;;3.50;;
42194;SDS011;27863;49.440;11.102;2023-01-08T18:32:07;3.77;;;3.47;;
42194;SDS011;27863;49.440;11.102;2023-01-08T18:35:07;4.20;;;3.83;;
42194;SDS011;27863;49.440;11.102;2023-01-08T18:38:08;4.53;;;4.00;;
42194;SDS011;27863;49.440;11.102;2023-01-08T18:41:15;4.97;;;4.00;;
42194;SDS011;27863;49.440;11.102;2023-01-08T18:44:38;4.10;;;3.70;;
42194;SDS011;27863;49.440;11.102;2023-01-08T18:47:39;5.20;;;3.60;;
42194;SDS011;27863;49.440;11.102;2023-01-08T18:50:39;4.93;;;4.07;;
42194;SDS011;27863;49.440;11.102;2023-01-08T18:53:41;4.20;;;3.80;;
42194;SDS011;27863;49.440;11.102;2023-01-08T18:56:42;3.70;;;3.40;;
42194;SDS011;27863;49.440;11.102;2023-01-08T18:59:42;4.40;;;4.00;;
42194;SDS011;27863;49.440;11.102;2023-01-08T19:02:43;5.30;;;4.43;;
42194;SDS011;27863;49.440;11.102;2023-01-08T19:05:44;4.50;;;4.10;;
42194;SDS011;27863;49.440;11.102;2023-01-08T19:08:44;4.27;;;3.87;;
42194;SDS011;27863;49.440;11.102;2023-01-08T19:11:45;4.43;;;4.03;;
42194;SDS011;27863;49.440;11.102;2023-01-08T19:14:46;5.33;;;4.83;;
42194;SDS011;27863;49.440;11.102;2023-01-08T19:17:47;5.43;;;5.03;;
42194;SDS011;27863;49.440;11.102;2023-01-08T19:20:47;5.10;;;4.60;;